Cosco Aden — VRKF9 — position and weather

sailwx.info

Track history (hours):
 
Tides and Currents Weather Stations Pressure Air Temp Water Temp Dewpoint Dewpoint Depression Visibility Wind Speed Wind Dir Waves Ship Positions

Cosco Aden

Last reported at 2018-Apr-22 04:58 UTC. Time now 2018-Apr-24 21:12 UTC.
Position N 35°59' E 120°31'.

Length 261 m; draft 10.7 m.

Type: Ship (hazmat cat D). MMSI: 477765900.

Date/timePositionNaut miles runAvg speedWind from/ knotsBaromVisibWave heightAir tempDewpointWater temp
2018-Apr-22 04:58N 35°59' E 120°31'1014.7
2018-Apr-22 04:19N 36°01' E 120°20'4 9.6
2018-Apr-22 03:57N 36°02' E 120°15'3 6.4
2018-Apr-22 03:25N 35°60' E 120°12'0 0.0
2018-Apr-22 01:59N 35°60' E 120°12'0 0.0
2018-Apr-22 01:29N 35°60' E 120°12'0 0.0
2018-Apr-22 00:49N 35°60' E 120°12'0 0.0
2018-Apr-22 00:28N 35°60' E 120°12'0 0.0
2018-Apr-21 23:46N 35°60' E 120°12'0 0.0
2018-Apr-21 23:28N 35°60' E 120°12'0 0.0
2018-Apr-21 22:43N 35°60' E 120°12'0 0.0
2018-Apr-21 21:40N 35°60' E 120°12'0 0.0
2018-Apr-21 21:28N 35°60' E 120°12'0 0.0
2018-Apr-21 20:58N 35°60' E 120°12'0 0.0
2018-Apr-21 20:28N 35°60' E 120°12'0 0.1
2018-Apr-21 19:43N 35°60' E 120°12'0 0.1
2018-Apr-21 19:19N 35°60' E 120°12'0 0.0
2018-Apr-21 18:43N 35°60' E 120°12'0 0.0
2018-Apr-21 18:28N 35°60' E 120°12'0 0.0
2018-Apr-21 17:25N 35°60' E 120°12'0 0.0
2018-Apr-21 16:14N 35°60' E 120°12'0 0.0
2018-Apr-21 13:37N 35°60' E 120°12'0 0.0
2018-Apr-21 13:16N 35°60' E 120°12'0 0.0
2018-Apr-21 12:59N 35°60' E 120°12'0 0.0
2018-Apr-21 12:22N 35°60' E 120°12'0 0.0
2018-Apr-21 11:58N 35°60' E 120°12'0 0.0
2018-Apr-21 11:15N 35°60' E 120°12'4 7.4
2018-Apr-21 10:45N 36°02' E 120°16'312.6
2018-Apr-21 10:29N 36°02' E 120°20'812.8
2018-Apr-21 09:51N 35°60' E 120°29'79 3.9
2018-Apr-20 13:39N 36°26' E 122°02'1 5.8
2018-Apr-20 13:30N 36°27' E 122°03'4 5.2
2018-Apr-20 12:43N 36°30' E 122°07'1 5.5
2018-Apr-20 12:30N 36°30' E 122°08'5 5.5
2018-Apr-20 11:35N 36°33' E 122°13'0 6.2
2018-Apr-20 11:30N 36°34' E 122°13'3110.7
2018-Apr-20 08:39N 36°56' E 122°40'216.0
2018-Apr-20 08:30N 36°58' E 122°41'5013.8
2018-Apr-20 04:52N 37°45' E 122°19'614.5
2018-Apr-20 04:27N 37°49' E 122°14'614.4
2018-Apr-20 04:00N 37°53' E 122°07'714.3
2018-Apr-20 03:30N 37°57' E 121°60'714.4
2018-Apr-20 03:00N 38°01' E 121°52'814.6
2018-Apr-20 02:26N 38°06' E 121°44'614.6
2018-Apr-20 02:00N 38°10' E 121°37'714.8
2018-Apr-20 01:30N 38°14' E 121°30'815.1
2018-Apr-20 01:00N 38°18' E 121°22'815.2
2018-Apr-20 00:30N 38°23' E 121°14'915.2
2018-Apr-19 23:55N 38°27' E 121°04'815.3
2018-Apr-19 23:24N 38°31' E 120°56'612.0
2018-Apr-19 22:52N 38°34' E 120°48'712.6
2018-Apr-19 22:18N 38°35' E 120°39'516.4
2018-Apr-19 22:00N 38°36' E 120°33'816.1
2018-Apr-19 21:31N 38°37' E 120°23'815.8
2018-Apr-19 21:01N 38°38' E 120°13'815.6
2018-Apr-19 20:30N 38°39' E 120°03'815.4
2018-Apr-19 19:59N 38°40' E 119°53'715.3
2018-Apr-19 19:31N 38°41' E 119°43'815.1
2018-Apr-19 19:01N 38°42' E 119°34'1114.9
2018-Apr-19 18:17N 38°44' E 119°20'414.9
2018-Apr-19 17:59N 38°44' E 119°14'914.9
2018-Apr-19 17:22N 38°45' E 119°03'614.9
2018-Apr-19 17:00N 38°46' E 118°56'815.1
2018-Apr-19 16:29N 38°47' E 118°46'1415.0
2018-Apr-19 15:33N 38°49' E 118°28'132 4.2
2018-Apr-18 07:53N 38°32' E 121°15'513.1
2018-Apr-18 07:29N 38°33' E 121°22'613.2
2018-Apr-18 07:00N 38°33' E 121°30'713.2
2018-Apr-18 06:30N 38°33' E 121°39'612.1
2018-Apr-18 06:00N 38°38' E 121°43'612.5
2018-Apr-18 05:30N 38°43' E 121°47'815.1
2018-Apr-18 05:00N 38°49' E 121°52'510.9
2018-Apr-18 04:30N 38°54' E 121°55'1 0.1
2018-Apr-17 14:07N 38°55' E 121°57'214.2
2018-Apr-17 14:00N 38°54' E 121°57'611.5
2018-Apr-17 13:30N 38°48' E 121°59'510.7
2018-Apr-17 13:00N 38°44' E 122°03'4 8.8
2018-Apr-17 12:30N 38°40' E 122°05'5 9.5
2018-Apr-17 12:00N 38°36' E 122°08'611.1
2018-Apr-17 11:30N 38°31' E 122°11'611.2
2018-Apr-17 11:00N 38°26' E 122°14'611.3
2018-Apr-17 10:30N 38°21' E 122°17'611.3
2018-Apr-17 10:00N 38°16' E 122°21'910.7
2018-Apr-17 09:10N 38°07' E 122°26'5 7.5
2018-Apr-17 08:28N 38°03' E 122°28'3 7.2
2018-Apr-17 07:59N 37°59' E 122°30'4 7.0
2018-Apr-17 07:29N 37°56' E 122°32'41011.6
2018-Apr-15 20:05N 31°06' E 122°32'212.1
2018-Apr-15 19:56N 31°05' E 122°30'510.9
2018-Apr-15 19:29N 31°06' E 122°25'613.3
2018-Apr-15 19:00N 31°07' E 122°17'714.9
2018-Apr-15 18:30N 31°11' E 122°10'714.3
2018-Apr-15 18:00N 31°14' E 122°03'612.7
2018-Apr-15 17:30N 31°15' E 121°55'713.2
2018-Apr-15 16:59N 31°18' E 121°48'611.1
2018-Apr-15 16:28N 31°20' E 121°41'5 9.3
2018-Apr-15 15:58N 31°22' E 121°37'1 0.8
2018-Apr-15 14:21N 31°22' E 121°35'0 0.0
2018-Apr-15 13:48N 31°22' E 121°35'0 0.0
2018-Apr-15 12:21N 31°22' E 121°35'0 0.0
2018-Apr-15 10:57N 31°22' E 121°35'0 0.0
2018-Apr-15 05:54N 31°22' E 121°35'0 0.5
2018-Apr-15 05:30N 31°22' E 121°35'2 3.1
2018-Apr-15 04:56N 31°22' E 121°37'4 7.4
2018-Apr-15 04:21N 31°20' E 121°42'410.0
2018-Apr-15 03:54N 31°18' E 121°47'6 9.7
2018-Apr-15 03:15N 31°16' E 121°54'412.1
2018-Apr-15 02:58N 31°15' E 121°58'612.0
2018-Apr-15 02:28N 31°14' E 122°05'1020.8
2018-Apr-15 02:00N 31°09' E 122°14'510.4
2018-Apr-15 01:30N 31°06' E 122°19'4 7.8
2018-Apr-15 01:00N 31°06' E 122°24'5 9.8
2018-Apr-15 00:30N 31°06' E 122°30'7 7.2
2018-Apr-14 23:35N 31°13' E 122°31'1 9.9
2018-Apr-14 23:30N 31°13' E 122°31'5 0.1
2018-Apr-13 00:17N 31°09' E 122°34'2 4.7
2018-Apr-12 23:45N 31°07' E 122°35'1 2.9
2018-Apr-12 23:30N 31°07' E 122°36'6 6.2
2018-Apr-12 22:37N 31°06' E 122°43'2 8.7
2018-Apr-12 22:26N 31°06' E 122°44'1312.1
2018-Apr-12 21:20N 30°53' E 122°49'910.8
2018-Apr-12 20:29N 30°45' E 122°53'1019.4
2018-Apr-12 19:57N 30°34' E 122°55'  
Track history (hours):
 
Tides and Currents Weather Stations Pressure Air Temp Water Temp Dewpoint Dewpoint Depression Visibility Wind Speed Wind Dir Waves Ship Positions

Cosco Aden

Last reported at 2018-Apr-22 04:58 UTC. Time now 2018-Apr-24 21:12 UTC.
Position N 35°59' E 120°31'.

Length 261 m; draft 10.7 m.

Type: Ship (hazmat cat D). MMSI: 477765900.

Date/timePositionNaut miles runAvg speedWind from/ knotsBaromVisibWave heightAir tempDewpointWater temp
2018-Apr-22 04:58N 35°59' E 120°31'1014.7
2018-Apr-22 04:19N 36°01' E 120°20'4 9.6
2018-Apr-22 03:57N 36°02' E 120°15'3 6.4
2018-Apr-22 03:25N 35°60' E 120°12'0 0.0
2018-Apr-22 01:59N 35°60' E 120°12'0 0.0
2018-Apr-22 01:29N 35°60' E 120°12'0 0.0
2018-Apr-22 00:49N 35°60' E 120°12'0 0.0
2018-Apr-22 00:28N 35°60' E 120°12'0 0.0
2018-Apr-21 23:46N 35°60' E 120°12'0 0.0
2018-Apr-21 23:28N 35°60' E 120°12'0 0.0
2018-Apr-21 22:43N 35°60' E 120°12'0 0.0
2018-Apr-21 21:40N 35°60' E 120°12'0 0.0
2018-Apr-21 21:28N 35°60' E 120°12'0 0.0
2018-Apr-21 20:58N 35°60' E 120°12'0 0.0
2018-Apr-21 20:28N 35°60' E 120°12'0 0.1
2018-Apr-21 19:43N 35°60' E 120°12'0 0.1
2018-Apr-21 19:19N 35°60' E 120°12'0 0.0
2018-Apr-21 18:43N 35°60' E 120°12'0 0.0
2018-Apr-21 18:28N 35°60' E 120°12'0 0.0
2018-Apr-21 17:25N 35°60' E 120°12'0 0.0
2018-Apr-21 16:14N 35°60' E 120°12'0 0.0
2018-Apr-21 13:37N 35°60' E 120°12'0 0.0
2018-Apr-21 13:16N 35°60' E 120°12'0 0.0
2018-Apr-21 12:59N 35°60' E 120°12'0 0.0
2018-Apr-21 12:22N 35°60' E 120°12'0 0.0
2018-Apr-21 11:58N 35°60' E 120°12'0 0.0
2018-Apr-21 11:15N 35°60' E 120°12'4 7.4
2018-Apr-21 10:45N 36°02' E 120°16'312.6
2018-Apr-21 10:29N 36°02' E 120°20'812.8
2018-Apr-21 09:51N 35°60' E 120°29'79 3.9
2018-Apr-20 13:39N 36°26' E 122°02'1 5.8
2018-Apr-20 13:30N 36°27' E 122°03'4 5.2
2018-Apr-20 12:43N 36°30' E 122°07'1 5.5
2018-Apr-20 12:30N 36°30' E 122°08'5 5.5
2018-Apr-20 11:35N 36°33' E 122°13'0 6.2
2018-Apr-20 11:30N 36°34' E 122°13'3110.7
2018-Apr-20 08:39N 36°56' E 122°40'216.0
2018-Apr-20 08:30N 36°58' E 122°41'5013.8
2018-Apr-20 04:52N 37°45' E 122°19'614.5
2018-Apr-20 04:27N 37°49' E 122°14'614.4
2018-Apr-20 04:00N 37°53' E 122°07'714.3
2018-Apr-20 03:30N 37°57' E 121°60'714.4
2018-Apr-20 03:00N 38°01' E 121°52'814.6
2018-Apr-20 02:26N 38°06' E 121°44'614.6
2018-Apr-20 02:00N 38°10' E 121°37'714.8
2018-Apr-20 01:30N 38°14' E 121°30'815.1
2018-Apr-20 01:00N 38°18' E 121°22'815.2
2018-Apr-20 00:30N 38°23' E 121°14'915.2
2018-Apr-19 23:55N 38°27' E 121°04'815.3
2018-Apr-19 23:24N 38°31' E 120°56'612.0
2018-Apr-19 22:52N 38°34' E 120°48'712.6
2018-Apr-19 22:18N 38°35' E 120°39'516.4
2018-Apr-19 22:00N 38°36' E 120°33'816.1
2018-Apr-19 21:31N 38°37' E 120°23'815.8
2018-Apr-19 21:01N 38°38' E 120°13'815.6
2018-Apr-19 20:30N 38°39' E 120°03'815.4
2018-Apr-19 19:59N 38°40' E 119°53'715.3
2018-Apr-19 19:31N 38°41' E 119°43'815.1
2018-Apr-19 19:01N 38°42' E 119°34'1114.9
2018-Apr-19 18:17N 38°44' E 119°20'414.9
2018-Apr-19 17:59N 38°44' E 119°14'914.9
2018-Apr-19 17:22N 38°45' E 119°03'614.9
2018-Apr-19 17:00N 38°46' E 118°56'815.1
2018-Apr-19 16:29N 38°47' E 118°46'1415.0
2018-Apr-19 15:33N 38°49' E 118°28'132 4.2
2018-Apr-18 07:53N 38°32' E 121°15'513.1
2018-Apr-18 07:29N 38°33' E 121°22'613.2
2018-Apr-18 07:00N 38°33' E 121°30'713.2
2018-Apr-18 06:30N 38°33' E 121°39'612.1
2018-Apr-18 06:00N 38°38' E 121°43'612.5
2018-Apr-18 05:30N 38°43' E 121°47'815.1
2018-Apr-18 05:00N 38°49' E 121°52'510.9
2018-Apr-18 04:30N 38°54' E 121°55'1 0.1
2018-Apr-17 14:07N 38°55' E 121°57'214.2
2018-Apr-17 14:00N 38°54' E 121°57'611.5
2018-Apr-17 13:30N 38°48' E 121°59'510.7
2018-Apr-17 13:00N 38°44' E 122°03'4 8.8
2018-Apr-17 12:30N 38°40' E 122°05'5 9.5
2018-Apr-17 12:00N 38°36' E 122°08'611.1
2018-Apr-17 11:30N 38°31' E 122°11'611.2
2018-Apr-17 11:00N 38°26' E 122°14'611.3
2018-Apr-17 10:30N 38°21' E 122°17'611.3
2018-Apr-17 10:00N 38°16' E 122°21'910.7
2018-Apr-17 09:10N 38°07' E 122°26'5 7.5
2018-Apr-17 08:28N 38°03' E 122°28'3 7.2
2018-Apr-17 07:59N 37°59' E 122°30'4 7.0
2018-Apr-17 07:29N 37°56' E 122°32'41011.6
2018-Apr-15 20:05N 31°06' E 122°32'212.1
2018-Apr-15 19:56N 31°05' E 122°30'510.9
2018-Apr-15 19:29N 31°06' E 122°25'613.3
2018-Apr-15 19:00N 31°07' E 122°17'714.9
2018-Apr-15 18:30N 31°11' E 122°10'714.3
2018-Apr-15 18:00N 31°14' E 122°03'612.7
2018-Apr-15 17:30N 31°15' E 121°55'713.2
2018-Apr-15 16:59N 31°18' E 121°48'611.1
2018-Apr-15 16:28N 31°20' E 121°41'5 9.3
2018-Apr-15 15:58N 31°22' E 121°37'1 0.8
2018-Apr-15 14:21N 31°22' E 121°35'0 0.0
2018-Apr-15 13:48N 31°22' E 121°35'0 0.0
2018-Apr-15 12:21N 31°22' E 121°35'0 0.0
2018-Apr-15 10:57N 31°22' E 121°35'0 0.0
2018-Apr-15 05:54N 31°22' E 121°35'0 0.5
2018-Apr-15 05:30N 31°22' E 121°35'2 3.1
2018-Apr-15 04:56N 31°22' E 121°37'4 7.4
2018-Apr-15 04:21N 31°20' E 121°42'410.0
2018-Apr-15 03:54N 31°18' E 121°47'6 9.7
2018-Apr-15 03:15N 31°16' E 121°54'412.1
2018-Apr-15 02:58N 31°15' E 121°58'612.0
2018-Apr-15 02:28N 31°14' E 122°05'1020.8
2018-Apr-15 02:00N 31°09' E 122°14'510.4
2018-Apr-15 01:30N 31°06' E 122°19'4 7.8
2018-Apr-15 01:00N 31°06' E 122°24'5 9.8
2018-Apr-15 00:30N 31°06' E 122°30'7 7.2
2018-Apr-14 23:35N 31°13' E 122°31'1 9.9
2018-Apr-14 23:30N 31°13' E 122°31'5 0.1
2018-Apr-13 00:17N 31°09' E 122°34'2 4.7
2018-Apr-12 23:45N 31°07' E 122°35'1 2.9
2018-Apr-12 23:30N 31°07' E 122°36'6 6.2
2018-Apr-12 22:37N 31°06' E 122°43'2 8.7
2018-Apr-12 22:26N 31°06' E 122°44'1312.1
2018-Apr-12 21:20N 30°53' E 122°49'910.8
2018-Apr-12 20:29N 30°45' E 122°53'1019.4
2018-Apr-12 19:57N 30°34' E 122°55'  

Dump ship's entire track history